Time;durP1;ratioP1;P1;durP2;ratioP2;P2;SDS_P1;SDS_P2;PMS_P1;PMS_P2;Temp;Humidity;BMP_temperature;BMP_pressure;BME280_temperature;BME280_humidity;BME280_pressure;Samples;Min_cycle;Max_cycle;Signal;HPM_P1;HPM_P2
2024/01/19 00:04:54;;;;;;;1.45;1.02;;;;;;;18.87;43.92;95992.22;20752309;28;20052;-74
2024/01/19 00:15:13;;;;;;;1.10;1.00;;;;;;;18.81;44.14;96002.47;20798996;28;20058;-74
2024/01/19 00:25:33;;;;;;;2.67;1.10;;;;;;;18.78;44.16;96030.88;20792154;28;20128;-74
2024/01/19 00:35:52;;;;;;;1.30;1.02;;;;;;;18.77;43.89;96045.50;20799353;28;20057;-73
2024/01/19 00:46:12;;;;;;;1.90;0.98;;;;;;;18.70;44.02;96044.47;20766401;28;20084;-74
2024/01/19 00:56:31;;;;;;;2.40;1.23;;;;;;;18.67;43.94;96058.66;20725914;28;20403;-73
2024/01/19 01:06:51;;;;;;;1.65;1.00;;;;;;;18.66;43.91;96073.25;20799735;28;20049;-74
2024/01/19 01:17:11;;;;;;;2.05;1.10;;;;;;;18.62;43.73;96091.22;20771056;28;20419;-74
2024/01/19 01:27:30;;;;;;;1.58;0.98;;;;;;;18.63;43.63;96119.78;20796109;28;20422;-74
2024/01/19 01:37:50;;;;;;;1.15;0.90;;;;;;;18.60;43.49;96147.44;20784194;28;20060;-74
2024/01/19 01:48:09;;;;;;;0.90;0.80;;;;;;;18.56;43.75;96163.47;20773430;28;20045;-74
2024/01/19 01:58:29;;;;;;;1.38;1.00;;;;;;;18.51;43.51;96169.88;20771116;28;20526;-74
2024/01/19 02:08:48;;;;;;;1.02;0.90;;;;;;;18.48;43.44;96183.25;20819177;28;20057;-74
2024/01/19 02:19:08;;;;;;;1.10;0.90;;;;;;;18.46;43.38;96207.84;20793356;28;20724;-74
2024/01/19 02:29:27;;;;;;;1.05;0.90;;;;;;;18.43;43.47;96199.66;20777066;28;20117;-74
2024/01/19 02:39:47;;;;;;;0.80;0.70;;;;;;;18.38;43.41;96198.72;20798666;28;20053;-74
2024/01/19 02:50:07;;;;;;;1.20;0.88;;;;;;;18.38;43.39;96214.91;20805000;28;20399;-74
2024/01/19 03:00:27;;;;;;;1.55;0.80;;;;;;;18.35;43.25;96229.03;20773907;28;20100;-74
2024/01/19 03:10:47;;;;;;;0.88;0.60;;;;;;;18.32;43.29;96255.88;20781183;28;20064;-74
2024/01/19 03:21:06;;;;;;;1.00;0.70;;;;;;;18.28;43.22;96271.91;20803518;28;20064;-74
2024/01/19 03:31:26;;;;;;;1.52;0.82;;;;;;;18.24;43.29;96271.00;20792842;28;20061;-74
2024/01/19 03:41:45;;;;;;;0.93;0.80;;;;;;;18.21;43.19;96282.44;20784250;28;20057;-74
2024/01/19 03:52:07;;;;;;;1.00;0.90;;;;;;;18.17;43.11;96286.94;20770261;28;20049;-71
2024/01/19 04:02:26;;;;;;;1.00;0.70;;;;;;;18.13;43.09;96299.44;20757384;28;20081;-72
2024/01/19 04:12:46;;;;;;;0.73;0.70;;;;;;;18.11;43.03;96320.56;20786208;28;20077;-71
2024/01/19 04:23:05;;;;;;;0.90;0.70;;;;;;;18.07;42.89;96331.22;20786043;28;20060;-71
2024/01/19 04:33:24;;;;;;;0.70;0.70;;;;;;;18.06;43.09;96342.31;20785327;28;20440;-72
2024/01/19 04:43:44;;;;;;;1.33;0.93;;;;;;;18.02;42.79;96354.88;20766448;28;20045;-71
2024/01/19 04:54:05;;;;;;;0.70;0.70;;;;;;;17.98;43.07;96366.28;20761025;28;20403;-72
2024/01/19 05:04:24;;;;;;;0.70;0.70;;;;;;;17.95;42.82;96380.44;20791975;28;20049;-74
2024/01/19 05:14:47;;;;;;;0.75;0.75;;;;;;;17.95;43.98;96388.50;20788533;28;20065;-74
2024/01/19 05:25:07;;;;;;;0.70;0.70;;;;;;;17.96;44.09;96397.38;20759941;28;20107;-76
2024/01/19 05:35:26;;;;;;;3.17;0.80;;;;;;;17.98;44.17;96412.09;20761947;28;20049;-75
2024/01/19 05:45:46;;;;;;;1.65;0.80;;;;;;;18.02;44.55;96419.56;20835355;28;20041;-74
2024/01/19 05:56:06;;;;;;;3.70;0.90;;;;;;;18.02;44.34;96441.91;20735445;28;20058;-76
2024/01/19 06:06:25;;;;;;;3.70;1.05;;;;;;;18.06;44.73;96453.63;20763301;28;20050;-75
2024/01/19 06:16:45;;;;;;;7.90;2.00;;;;;;;18.07;43.78;96443.63;20759646;28;20065;-72
2024/01/19 06:27:04;;;;;;;7.82;2.42;;;;;;;18.11;43.77;96464.25;20754598;28;20105;-71
2024/01/19 06:37:24;;;;;;;8.10;2.30;;;;;;;18.16;43.91;96476.75;20716718;28;20081;-71
2024/01/19 06:47:44;;;;;;;7.50;2.38;;;;;;;18.26;43.58;96489.09;20755484;28;20053;-72
2024/01/19 06:58:04;;;;;;;6.28;2.78;;;;;;;18.32;43.62;96507.44;20726367;28;20050;-72
2024/01/19 07:08:24;;;;;;;6.47;2.35;;;;;;;18.39;43.39;96504.25;20771733;28;20061;-72
2024/01/19 07:18:44;;;;;;;6.35;2.53;;;;;;;18.52;42.94;96527.53;20772237;28;20053;-72
2024/01/19 07:29:06;;;;;;;5.22;2.42;;;;;;;18.63;42.96;96536.06;20761666;28;20062;-72
2024/01/19 07:39:26;;;;;;;8.85;2.85;;;;;;;18.80;42.50;96547.91;20756119;28;20054;-71
2024/01/19 07:49:46;;;;;;;7.90;2.40;;;;;;;18.87;42.52;96575.19;20750501;28;20061;-71
2024/01/19 08:00:06;;;;;;;6.80;2.53;;;;;;;18.96;42.37;96584.03;20768430;28;20045;-71
2024/01/19 08:10:26;;;;;;;5.45;2.00;;;;;;;19.08;42.21;96619.22;20767205;28;20057;-71
2024/01/19 08:20:45;;;;;;;6.28;2.20;;;;;;;19.16;41.93;96631.09;20766802;28;20050;-72
2024/01/19 08:31:10;;;;;;;4.80;2.25;;;;;;;19.23;41.92;96661.09;20740794;28;20084;-75
2024/01/19 08:41:30;;;;;;;4.07;2.10;;;;;;;19.31;41.81;96675.69;20750714;28;20050;-76
2024/01/19 08:51:51;;;;;;;3.85;1.98;;;;;;;19.46;41.60;96696.72;20753874;28;20061;-76
2024/01/19 09:02:11;;;;;;;4.00;2.13;;;;;;;19.61;41.26;96719.69;20777486;28;20046;-75
2024/01/19 09:12:30;;;;;;;3.72;1.95;;;;;;;19.65;41.39;96738.75;20762372;28;20072;-75
2024/01/19 09:22:50;;;;;;;3.13;1.85;;;;;;;19.74;41.11;96743.03;20735565;28;20116;-76
2024/01/19 09:33:09;;;;;;;3.60;1.77;;;;;;;19.87;41.01;96765.53;20762235;28;20058;-76
2024/01/19 09:43:33;;;;;;;2.72;1.73;;;;;;;19.97;40.70;96783.28;20729216;28;20054;-71
2024/01/19 09:53:53;;;;;;;2.80;1.60;;;;;;;20.04;40.55;96771.97;20730879;28;20107;-73
2024/01/19 10:04:13;;;;;;;2.88;1.65;;;;;;;20.15;40.54;96786.72;20760342;28;20423;-71
2024/01/19 10:14:32;;;;;;;2.80;1.80;;;;;;;20.26;40.32;96790.59;20760093;28;20068;-72
2024/01/19 10:25:02;;;;;;;2.28;1.50;;;;;;;20.37;40.01;96798.34;20707448;28;20046;-72
2024/01/19 10:35:22;;;;;;;2.20;1.58;;;;;;;20.48;39.98;96810.34;20774333;28;20057;-72
2024/01/19 10:45:41;;;;;;;2.85;1.55;;;;;;;20.51;39.76;96809.69;20726829;28;20046;-72
2024/01/19 10:56:02;;;;;;;2.08;1.40;;;;;;;20.63;39.61;96823.31;20750724;28;20053;-76
2024/01/19 11:06:21;;;;;;;1.77;1.20;;;;;;;20.69;39.47;96826.59;20772960;28;20103;-75
2024/01/19 11:16:46;;;;;;;3.17;1.38;;;;;;;20.78;39.45;96837.34;20756257;28;20050;-76
2024/01/19 11:27:19;;;;;;;2.92;1.45;;;;;;;20.82;39.23;96852.63;20770852;28;20069;-76
2024/01/19 11:37:46;;;;;;;2.65;1.35;;;;;;;20.83;39.24;96866.94;20755278;28;20120;-76
2024/01/19 11:48:07;;;;;;;;;;;;;;;20.86;39.42;96866.31;20742061;28;20392;-76
2024/01/19 11:58:31;;;;;;;1.35;1.00;;;;;;;20.83;39.54;96875.06;20740887;28;19928;-76
2024/01/19 12:09:04;;;;;;;2.55;1.40;;;;;;;20.81;39.56;96856.44;20735985;28;20498;-72
2024/01/19 12:19:23;;;;;;;2.00;1.27;;;;;;;20.77;39.49;96858.22;20767309;28;20073;-72
2024/01/19 12:29:43;;;;;;;2.08;1.10;;;;;;;20.76;39.59;96847.72;20765804;28;20058;-72
2024/01/19 12:40:25;;;;;;;1.60;1.02;;;;;;;20.73;39.54;96858.09;20764599;28;20045;-71
2024/01/19 12:50:45;;;;;;;2.33;1.10;;;;;;;20.73;39.41;96858.09;20742027;28;20591;-72
2024/01/19 13:01:05;;;;;;;1.40;1.17;;;;;;;20.65;39.55;96864.38;20764534;28;20054;-72
2024/01/19 13:11:24;;;;;;;1.20;1.10;;;;;;;20.64;39.97;96870.09;20740746;28;20054;-75
2024/01/19 13:21:44;;;;;;;1.58;1.00;;;;;;;20.60;39.85;96874.59;20761994;28;20056;-76
2024/01/19 13:32:04;;;;;;;1.73;1.17;;;;;;;20.57;40.08;96888.78;20761012;28;20639;-75
2024/01/19 13:42:25;;;;;;;0.80;0.80;;;;;;;20.54;39.87;96909.97;20762441;28;20508;-76
2024/01/19 13:52:45;;;;;;;0.88;0.80;;;;;;;20.50;40.18;96941.50;20732973;28;20061;-76
2024/01/19 14:03:05;;;;;;;1.08;0.98;;;;;;;20.44;39.91;96934.66;20741082;28;20076;-75
2024/01/19 14:13:24;;;;;;;1.63;0.80;;;;;;;20.41;40.33;96967.03;20776408;28;20093;-74
2024/01/19 14:23:44;;;;;;;1.00;0.90;;;;;;;20.32;40.45;96975.94;20761884;28;20085;-72
2024/01/19 14:34:04;;;;;;;0.90;0.80;;;;;;;20.25;40.45;96994.63;20759778;28;20049;-72
2024/01/19 14:44:23;;;;;;;0.77;0.77;;;;;;;20.22;40.60;97002.56;20775106;28;20046;-72
2024/01/19 14:54:43;;;;;;;1.00;0.73;;;;;;;20.20;40.52;97000.19;20755152;28;20149;-72
2024/01/19 15:05:04;;;;;;;1.00;0.90;;;;;;;20.06;40.66;97019.31;20746076;28;20525;-71
2024/01/19 15:15:24;;;;;;;1.00;0.90;;;;;;;20.02;40.63;97028.41;20771322;28;20116;-72
2024/01/19 15:25:43;;;;;;;0.90;0.70;;;;;;;19.99;40.78;97056.09;20779804;28;20463;-72
2024/01/19 15:36:08;;;;;;;1.27;0.90;;;;;;;19.89;39.38;97066.09;20795969;28;20049;-72
2024/01/19 15:46:27;;;;;;;2.17;1.10;;;;;;;19.87;40.36;97083.75;20728673;28;20607;-72
2024/01/19 15:56:48;;;;;;;2.70;1.08;;;;;;;19.89;40.88;97098.56;20701197;28;20469;-72
2024/01/19 16:07:08;;;;;;;2.47;1.08;;;;;;;19.83;41.37;97115.25;20761271;28;20057;-73
2024/01/19 16:17:28;;;;;;;1.10;0.88;;;;;;;19.79;41.64;97108.91;20750031;28;20061;-72
2024/01/19 16:27:48;;;;;;;2.42;1.27;;;;;;;19.73;41.86;97144.19;20735729;28;20054;-74
2024/01/19 16:38:07;;;;;;;1.25;0.90;;;;;;;19.69;42.11;97143.19;20724285;28;20054;-75
2024/01/19 16:48:27;;;;;;;1.45;1.00;;;;;;;19.68;42.11;97155.13;20714648;28;20049;-74
2024/01/19 16:58:47;;;;;;;2.17;1.08;;;;;;;19.71;42.08;97154.53;20726251;28;20072;-71
2024/01/19 17:09:07;;;;;;;1.42;1.00;;;;;;;19.68;42.13;97157.03;20748885;28;20129;-72
2024/01/19 17:19:27;;;;;;;1.88;1.00;;;;;;;19.75;41.42;97184.44;20764241;28;20101;-70
2024/01/19 17:29:48;;;;;;;2.67;1.08;;;;;;;19.72;40.88;97198.59;20786983;28;20049;-71
2024/01/19 17:40:08;;;;;;;1.92;0.98;;;;;;;19.67;41.32;97218.41;20772214;28;20042;-71
2024/01/19 17:50:28;;;;;;;3.40;1.30;;;;;;;19.80;41.45;97235.66;20754318;28;20060;-71
2024/01/19 18:00:47;;;;;;;366.85;220.88;;;;;;;19.90;42.32;97256.97;20780123;28;20042;-71
2024/01/19 18:11:07;;;;;;;109.45;68.43;;;;;;;20.01;42.76;97268.28;20761432;28;20104;-71
2024/01/19 18:21:27;;;;;;;71.57;44.70;;;;;;;20.08;43.12;97284.06;20747469;28;20515;-71
2024/01/19 18:31:47;;;;;;;62.97;37.30;;;;;;;20.14;43.43;97285.50;20738916;28;20095;-71
2024/01/19 18:42:07;;;;;;;50.65;30.80;;;;;;;20.14;42.98;97293.59;20742659;28;20050;-70
2024/01/19 18:52:26;;;;;;;49.63;28.95;;;;;;;20.15;42.71;97309.53;20795789;28;20419;-69
2024/01/19 19:02:46;;;;;;;44.28;27.90;;;;;;;20.14;42.48;97320.66;20795532;28;20063;-70
2024/01/19 19:13:07;;;;;;;42.38;26.88;;;;;;;20.07;42.68;97336.53;20771316;28;20080;-69
2024/01/19 19:23:26;;;;;;;40.78;24.88;;;;;;;20.00;42.47;97347.03;20754144;28;20048;-72
2024/01/19 19:33:49;;;;;;;46.88;24.35;;;;;;;20.01;42.50;97359.44;20795901;28;20064;-72
2024/01/19 19:44:09;;;;;;;36.08;22.95;;;;;;;19.99;42.90;97351.63;20786886;28;20079;-73
2024/01/19 19:54:30;;;;;;;36.70;21.38;;;;;;;19.94;42.96;97397.75;20779967;28;20053;-72
2024/01/19 20:04:49;;;;;;;29.48;20.00;;;;;;;19.93;43.12;97413.19;20755517;28;20050;-73
2024/01/19 20:15:10;;;;;;;27.33;18.42;;;;;;;19.97;42.43;97428.78;20782801;28;20080;-72
2024/01/19 20:25:30;;;;;;;27.40;16.75;;;;;;;19.93;41.04;97415.09;20773694;28;20183;-72
2024/01/19 20:35:49;;;;;;;30.85;16.77;;;;;;;20.04;41.51;97446.16;20749472;28;20511;-73
2024/01/19 20:46:09;;;;;;;31.90;16.77;;;;;;;20.12;41.53;97447.31;20731719;28;20129;-73
2024/01/19 20:56:29;;;;;;;27.80;15.82;;;;;;;20.21;41.57;97442.75;20732817;28;20053;-72
2024/01/19 21:06:48;;;;;;;23.88;14.85;;;;;;;20.27;41.66;97452.31;20736664;28;20048;-73
2024/01/19 21:17:08;;;;;;;22.88;14.73;;;;;;;20.27;41.74;97449.59;20741357;28;20061;-73
2024/01/19 21:27:29;;;;;;;25.65;14.57;;;;;;;20.32;41.76;97457.56;20730092;28;20076;-73
2024/01/19 21:37:48;;;;;;;27.88;14.18;;;;;;;20.33;41.68;97461.88;20729601;28;20042;-73
2024/01/19 21:48:08;;;;;;;19.65;12.70;;;;;;;20.39;41.68;97477.97;20751906;28;20081;-73
2024/01/19 21:58:28;;;;;;;17.83;13.35;;;;;;;20.34;41.73;97493.22;20752633;28;20115;-72
2024/01/19 22:08:47;;;;;;;21.38;12.38;;;;;;;20.30;41.59;97499.59;20784666;28;20046;-73
2024/01/19 22:19:07;;;;;;;17.27;11.65;;;;;;;20.27;41.24;97506.41;20797605;28;20042;-72
2024/01/19 22:29:27;;;;;;;17.40;10.95;;;;;;;20.27;41.06;97530.78;20787949;28;20084;-77
2024/01/19 22:39:47;;;;;;;16.33;11.30;;;;;;;20.21;41.05;97533.91;20799460;28;20104;-77
2024/01/19 22:50:07;;;;;;;15.38;10.55;;;;;;;20.12;41.05;97542.78;20812975;28;20053;-77
2024/01/19 23:00:26;;;;;;;15.70;10.38;;;;;;;20.05;40.94;97566.78;20794382;28;20050;-77
2024/01/19 23:10:46;;;;;;;13.15;9.55;;;;;;;19.99;40.97;97561.78;20744953;28;20061;-77
2024/01/19 23:21:05;;;;;;;14.23;9.57;;;;;;;19.92;40.92;97568.44;20803829;28;20061;-75
2024/01/19 23:31:25;;;;;;;12.55;9.52;;;;;;;19.87;41.01;97581.28;20744874;28;20057;-78
2024/01/19 23:41:44;;;;;;;12.07;8.88;;;;;;;19.85;41.27;97588.91;20759494;28;20443;-78
2024/01/19 23:52:04;;;;;;;12.43;8.80;;;;;;;19.76;41.74;97588.84;20781022;28;20103;-79
